ADDS METAR Data INFO
IDs: Format: Raw Decoded Include TAF

Data at: 0839 UTC 21 Oct 2017

KVES 210815Z AUTO 15003KT 10SM CLR 11/11 A3018 RMK AO2
KVES 210755Z AUTO 00000KT 10SM CLR 11/11 A3018 RMK AO2
KVES 210735Z AUTO 16003KT 10SM CLR 10/10 A3018 RMK AO2
KVES 210715Z AUTO 15004KT 10SM CLR 12/11 A3018 RMK AO2
KVES 210655Z AUTO 16003KT 10SM CLR 11/10 A3018 RMK AO2
KVES 210635Z AUTO 16004KT 10SM CLR 12/11 A3018 RMK AO2
KVES 210615Z AUTO 17004KT 10SM CLR 12/11 A3018 RMK AO2
KVES 210555Z AUTO 16005KT 10SM CLR 13/11 A3018 RMK AO2
KVES 210535Z AUTO 16004KT 10SM CLR 12/10 A3018 RMK AO2
KVES 210515Z AUTO 17004KT 10SM CLR 13/10 A3019 RMK AO2
KVES 210455Z AUTO 00000KT 10SM CLR 13/10 A3019 RMK AO2
KVES 210435Z AUTO 00000KT 10SM CLR 14/10 A3019 RMK AO2
KVES 210415Z AUTO 17004KT 10SM CLR 15/10 A3019 RMK AO2
KVES 210355Z AUTO 17005KT 10SM CLR 14/10 A3019 RMK AO2
KVES 210335Z AUTO 17005KT 10SM CLR 15/10 A3019 RMK AO2
KVES 210315Z AUTO 18003KT 10SM CLR 15/10 A3019 RMK AO2
KVES 210255Z AUTO 18004KT 10SM CLR 16/10 A3019 RMK AO2
KVES 210235Z AUTO 17004KT 10SM CLR 16/10 A3019 RMK AO2
KVES 210215Z AUTO 00000KT 10SM CLR 16/10 A3019 RMK AO2
KVES 210155Z AUTO 18003KT 10SM CLR 16/10 A3019 RMK AO2
KVES 210135Z AUTO 18003KT 10SM CLR 16/10 A3019 RMK AO2
KVES 210115Z AUTO 18004KT 10SM CLR 16/10 A3019 RMK AO2
KVES 210055Z AUTO 00000KT 10SM CLR 17/10 A3019 RMK AO2
KVES 210035Z AUTO 18004KT 10SM CLR 17/10 A3019 RMK AO2
KVES 210015Z AUTO 18004KT 10SM CLR 17/10 A3019 RMK AO2
KVES 202355Z AUTO 17005KT 10SM CLR 17/10 A3019 RMK AO2
KVES 202335Z AUTO 18004KT 10SM CLR 18/10 A3019 RMK AO2
KVES 202315Z AUTO 18004KT 10SM CLR 20/11 A3019 RMK AO2
KVES 202255Z AUTO 18003KT 10SM CLR 20/11 A3018 RMK AO2
KVES 202235Z AUTO 18003KT 7SM CLR 21/10 A3018 RMK AO2
KVES 202215Z AUTO 18004KT 7SM CLR 22/10 A3018 RMK AO2
KVES 202155Z AUTO 19005KT 7SM CLR 22/10 A3018 RMK AO2
KVES 202135Z AUTO 19005KT 10SM CLR 23/10 A3018 RMK AO2
KVES 202115Z AUTO 18006KT 10SM CLR 23/10 A3018 RMK AO2
KVES 202055Z AUTO 20005KT 5SM HZ CLR 24/10 A3019 RMK AO2
KVES 202035Z AUTO 19005KT 10SM CLR 24/10 A3019 RMK AO2
KVES 202015Z AUTO 17007KT 10SM CLR 25/10 A3019 RMK AO2
KVES 201955Z AUTO 19005KT 10SM CLR 24/10 A3019 RMK AO2
KVES 201935Z AUTO 18003KT 7SM CLR 24/10 A3020 RMK AO2
KVES 201915Z AUTO 17005KT 10SM CLR 25/10 A3021 RMK AO2
KVES 201855Z AUTO 17007KT 10SM CLR 24/10 A3021 RMK AO2
KVES 201835Z AUTO 16006KT 10SM CLR 24/10 A3022 RMK AO2
KVES 201815Z AUTO 20006KT 10SM CLR 23/10 A3022 RMK AO2
KVES 201755Z AUTO 20003KT 10SM CLR 23/11 A3024 RMK AO2
KVES 201735Z AUTO 14006KT 10SM CLR 23/11 A3025 RMK AO2
KVES 201715Z AUTO 22007KT 10SM CLR 23/11 A3026 RMK AO2
KVES 201655Z AUTO 20006KT 10SM CLR 22/11 A3027 RMK AO2
KVES 201635Z AUTO 19006KT 10SM CLR 22/11 A3028 RMK AO2
KVES 201615Z AUTO 00000KT 10SM CLR 21/12 A3029 RMK AO2
KVES 201555Z AUTO 13005KT 10SM CLR 21/12 A3029 RMK AO2
KVES 201535Z AUTO 16003KT 10SM CLR 20/12 A3030 RMK AO2
KVES 201515Z AUTO 14003KT 10SM CLR 19/12 A3030 RMK AO2
KVES 201455Z AUTO 00000KT 10SM CLR 18/12 A3031 RMK AO2
KVES 201435Z AUTO 00000KT 10SM CLR 16/12 A3031 RMK AO2
KVES 201415Z AUTO 00000KT 10SM CLR 15/12 A3031 RMK AO2
KVES 201355Z AUTO 00000KT 10SM CLR 13/12 A3031 RMK AO2
KVES 201335Z AUTO 00000KT 10SM CLR 12/12 A3030 RMK AO2
KVES 201315Z AUTO 00000KT 7SM CLR 10/10 A3030 RMK AO2
KVES 201255Z AUTO 00000KT 7SM CLR 08/08 A3029 RMK AO2
KVES 201235Z AUTO 00000KT 7SM CLR 07/07 A3028 RMK AO2
KVES 201215Z AUTO 00000KT 3SM BR CLR 06/06 A3028 RMK AO2
KVES 201155Z AUTO 00000KT 2SM BR CLR 06/06 A3028 RMK AO2
KVES 201135Z AUTO 00000KT 4SM BR CLR 06/06 A3027 RMK AO2
KVES 201115Z AUTO 00000KT 4SM BR SCT002 06/06 A3028 RMK AO2
KVES 201055Z AUTO 00000KT 4SM BR CLR 06/06 A3027 RMK AO2
KVES 201035Z AUTO 00000KT 7SM CLR 07/07 A3026 RMK AO2
KVES 201015Z AUTO 00000KT 7SM CLR 06/06 A3026 RMK AO2
KVES 200955Z AUTO 00000KT 4SM BR CLR 06/06 A3025 RMK AO2
KVES 200935Z AUTO 00000KT 7SM CLR 07/07 A3025 RMK AO2
KVES 200915Z AUTO 00000KT 7SM CLR 07/07 A3024 RMK AO2
KVES 200855Z AUTO 00000KT 5SM BR CLR 07/07 A3024 RMK AO2
KVES 200835Z AUTO 00000KT 10SM CLR 08/08 A3024 RMK AO2
KVES 200815Z AUTO 00000KT 7SM CLR 07/07 A3023 RMK AO2
KVES 200755Z AUTO 00000KT 10SM CLR 07/07 A3023 RMK AO2
KVES 200735Z AUTO 00000KT 10SM CLR 07/07 A3023 RMK AO2
KVES 200715Z AUTO 00000KT 10SM CLR 08/08 A3023 RMK AO2
KVES 200655Z AUTO 00000KT 10SM CLR 09/09 A3023 RMK AO2
KVES 200635Z AUTO 00000KT 10SM CLR 09/09 A3023 RMK AO2
KVES 200615Z AUTO 00000KT 10SM CLR 08/08 A3023 RMK AO2
KVES 200555Z AUTO 23003KT 10SM CLR 09/09 A3023 RMK AO2
KVES 200535Z AUTO 00000KT 10SM CLR 09/09 A3022 RMK AO2
KVES 200515Z AUTO 00000KT 10SM CLR 09/09 A3022 RMK AO2
KVES 200455Z AUTO 00000KT 10SM CLR 10/10 A3022 RMK AO2
KVES 200435Z AUTO 00000KT 10SM CLR 11/10 A3022 RMK AO2
KVES 200415Z AUTO 00000KT 10SM CLR 11/11 A3022 RMK AO2
KVES 200355Z AUTO 00000KT 10SM CLR 11/10 A3022 RMK AO2
KVES 200335Z AUTO 00000KT 10SM CLR 11/10 A3022 RMK AO2
KVES 200315Z AUTO 00000KT 10SM CLR 11/10 A3022 RMK AO2
KVES 200255Z AUTO 26003KT 10SM CLR 11/10 A3021 RMK AO2
KVES 200235Z AUTO 25003KT 10SM CLR 12/10 A3021 RMK AO2
KVES 200215Z AUTO 00000KT 10SM CLR 13/10 A3021 RMK AO2
KVES 200155Z AUTO 00000KT 10SM CLR 13/10 A3021 RMK AO2
KVES 200135Z AUTO 00000KT 10SM CLR 13/10 A3020 RMK AO2
KVES 200115Z AUTO 00000KT 10SM CLR 13/10 A3020 RMK AO2
KVES 200055Z AUTO 25003KT 10SM CLR 13/10 A3020 RMK AO2
KVES 200035Z AUTO 24003KT 10SM CLR 14/10 A3020 RMK AO2
KVES 200015Z AUTO 23003KT 10SM CLR 15/10 A3020 RMK AO2
KVES 192355Z AUTO 26003KT 10SM CLR 16/10 A3020 RMK AO2
KVES 192335Z AUTO 27003KT 10SM CLR 17/10 A3019 RMK AO2
KVES 192315Z AUTO 28004KT 10SM CLR 17/09 A3019 RMK AO2
KVES 192255Z AUTO 28004KT 10SM CLR 19/10 A3018 RMK AO2
KVES 192235Z AUTO 27004KT 10SM CLR 20/10 A3018 RMK AO2
KVES 192215Z AUTO 26005KT 10SM CLR 21/10 A3018 RMK AO2
KVES 192155Z AUTO 26007KT 10SM CLR 22/09 A3017 RMK AO2
KVES 192135Z AUTO 27009KT 10SM CLR 22/09 A3017 RMK AO2
KVES 192115Z AUTO 25010KT 10SM CLR 23/09 A3017 RMK AO2
KVES 192055Z AUTO 26008KT 10SM CLR 23/09 A3017 RMK AO2